createdAt,value
2023-05-24T00:00:48.452Z,65.40
2023-05-24T00:01:48.434Z,67.29
2023-05-24T00:02:48.570Z,64.30
2023-05-24T00:03:48.531Z,65.48
2023-05-24T00:04:48.466Z,66.22
2023-05-24T00:05:48.405Z,67.60
2023-05-24T00:06:48.381Z,68.24
2023-05-24T00:07:48.378Z,67.96
2023-05-24T00:08:48.383Z,69.27
2023-05-24T00:09:48.372Z,67.25
2023-05-24T00:10:48.340Z,67.91
2023-05-24T00:11:48.318Z,67.02
2023-05-24T00:12:49.317Z,66.72
2023-05-24T00:13:48.334Z,66.13
2023-05-24T00:14:48.296Z,65.29
2023-05-24T00:15:48.286Z,68.53
2023-05-24T00:16:48.346Z,65.06
2023-05-24T00:17:48.278Z,66.17
2023-05-24T00:18:48.272Z,67.13
2023-05-24T00:19:48.307Z,66.41
2023-05-24T00:20:49.308Z,67.98
2023-05-24T00:21:48.229Z,69.14
2023-05-24T00:22:48.210Z,68.33
2023-05-24T00:23:48.208Z,65.57
2023-05-24T00:24:48.180Z,64.90
2023-05-24T00:25:48.180Z,66.57
2023-05-24T00:26:48.158Z,65.48
2023-05-24T00:27:48.183Z,68.49
2023-05-24T00:28:48.145Z,67.25
2023-05-24T00:29:48.118Z,69.93
2023-05-24T00:30:48.129Z,68.48
2023-05-24T00:31:48.128Z,64.55
2023-05-24T00:32:48.173Z,65.37
2023-05-24T00:33:48.088Z,69.12
2023-05-24T00:34:48.072Z,68.79
2023-05-24T00:35:48.063Z,67.22
2023-05-24T00:36:48.063Z,67.79
2023-05-24T00:37:48.053Z,67.63
2023-05-24T00:38:48.028Z,66.83
2023-05-24T00:39:48.016Z,65.98
2023-05-24T00:40:48.020Z,63.01
2023-05-24T00:41:48.035Z,63.19
2023-05-24T00:42:47.989Z,66.05
2023-05-24T00:43:47.979Z,68.80
2023-05-24T00:44:47.992Z,68.03
2023-05-24T00:45:47.978Z,68.87
2023-05-24T00:46:47.942Z,66.56
2023-05-24T00:47:47.983Z,67.28
2023-05-24T00:48:47.912Z,64.79
2023-05-24T00:49:47.921Z,65.44
2023-05-24T00:50:47.893Z,64.22
2023-05-24T00:51:47.896Z,66.58
2023-05-24T00:52:47.870Z,65.66
2023-05-24T00:53:47.866Z,67.09
2023-05-24T00:54:47.896Z,66.45
2023-05-24T00:55:47.860Z,66.42
2023-05-24T00:56:47.853Z,68.68
2023-05-24T00:57:47.824Z,66.28
2023-05-24T00:58:47.805Z,66.20
2023-05-24T00:59:47.828Z,67.13
2023-05-24T01:00:47.811Z,67.41
2023-05-24T01:01:47.855Z,66.43
2023-05-24T01:02:47.869Z,67.64
2023-05-24T01:03:47.920Z,67.49
2023-05-24T01:04:47.746Z,68.18
2023-05-24T01:05:47.748Z,66.47
2023-05-24T01:06:47.730Z,66.31
2023-05-24T01:07:47.816Z,65.36
2023-05-24T01:08:47.794Z,66.79
2023-05-24T01:09:47.766Z,66.96
2023-05-24T01:10:47.681Z,67.38
2023-05-24T01:11:47.666Z,67.57
2023-05-24T01:12:47.681Z,66.11
2023-05-24T01:13:47.692Z,67.89
2023-05-24T01:14:47.664Z,64.35
2023-05-24T01:15:47.646Z,65.98
2023-05-24T01:16:47.622Z,66.79
2023-05-24T01:17:47.665Z,66.37
2023-05-24T01:18:47.611Z,67.95
2023-05-24T01:19:47.785Z,65.22
2023-05-24T01:20:47.788Z,68.21
2023-05-24T01:21:47.571Z,67.28
2023-05-24T01:22:47.549Z,69.69
2023-05-24T01:23:47.584Z,69.65
2023-05-24T01:24:47.545Z,68.20
2023-05-24T01:25:47.518Z,68.51
2023-05-24T01:26:47.497Z,65.66
2023-05-24T01:27:47.490Z,66.33
2023-05-24T01:28:47.503Z,66.25
2023-05-24T01:29:47.474Z,67.56
2023-05-24T01:30:47.453Z,68.03
2023-05-24T01:31:47.549Z,66.71
2023-05-24T01:32:47.542Z,69.02
2023-05-24T01:33:47.444Z,67.01
2023-05-24T01:34:47.415Z,68.28
2023-05-24T01:35:47.410Z,68.44
2023-05-24T01:36:47.401Z,67.44
2023-05-24T01:37:47.407Z,65.29
2023-05-24T01:38:47.391Z,65.56
2023-05-24T01:39:47.353Z,67.40
2023-05-24T01:40:47.340Z,65.89
2023-05-24T01:41:47.334Z,68.11
2023-05-24T01:42:47.348Z,67.94
2023-05-24T01:43:47.330Z,66.39
2023-05-24T01:44:47.315Z,67.50
2023-05-24T01:45:47.291Z,65.14
2023-05-24T01:46:47.382Z,66.63
2023-05-24T01:47:47.358Z,65.54
2023-05-24T01:48:47.277Z,66.60
2023-05-24T01:49:47.256Z,66.02
2023-05-24T01:50:47.244Z,65.68
2023-05-24T01:51:47.275Z,68.48
2023-05-24T01:52:47.225Z,68.85
2023-05-24T01:53:47.204Z,70.73
2023-05-24T01:54:47.194Z,68.29
2023-05-24T01:55:47.177Z,70.34
2023-05-24T01:56:47.233Z,66.52
2023-05-24T01:57:47.164Z,69.86
2023-05-24T01:58:47.137Z,68.58
2023-05-24T01:59:47.155Z,70.65
2023-05-24T02:00:47.149Z,67.32
2023-05-24T02:01:47.127Z,67.13
2023-05-24T02:02:47.168Z,65.62
2023-05-24T02:03:47.090Z,64.76
2023-05-24T02:04:47.083Z,67.66
2023-05-24T02:05:47.072Z,68.16
2023-05-24T02:06:47.084Z,70.12
2023-05-24T02:07:47.047Z,68.30
2023-05-24T02:08:47.029Z,70.62
2023-05-24T02:09:47.043Z,68.64
2023-05-24T02:10:47.064Z,68.58
2023-05-24T02:11:47.032Z,67.94
2023-05-24T02:12:47.004Z,69.85
2023-05-24T02:13:46.993Z,67.62
2023-05-24T02:14:46.977Z,70.19
2023-05-24T02:15:46.997Z,68.63
2023-05-24T02:16:47.128Z,68.80
2023-05-24T02:17:46.992Z,70.44
2023-05-24T02:18:46.937Z,69.83
2023-05-24T02:19:46.928Z,70.96
2023-05-24T02:20:47.025Z,71.75
2023-05-24T02:21:46.901Z,72.11
2023-05-24T02:22:46.891Z,71.23
2023-05-24T02:23:46.880Z,71.87
2023-05-24T02:24:46.889Z,71.19
2023-05-24T02:25:46.869Z,68.97
2023-05-24T02:26:46.844Z,71.54
2023-05-24T02:27:46.834Z,71.31
2023-05-24T02:28:46.824Z,70.63
2023-05-24T02:29:46.839Z,70.72
2023-05-24T02:30:46.817Z,71.47
2023-05-24T02:31:46.792Z,70.94
2023-05-24T02:33:18.683Z,71.28
2023-05-24T02:33:46.777Z,69.44
2023-05-24T02:34:46.794Z,70.97
2023-05-24T02:35:46.759Z,70.58
2023-05-24T02:36:46.761Z,71.28
2023-05-24T02:37:46.728Z,70.30
2023-05-24T02:38:46.740Z,68.46
2023-05-24T02:39:46.762Z,70.60
2023-05-24T02:40:46.706Z,70.75
2023-05-24T02:41:46.698Z,69.89
2023-05-24T02:42:46.680Z,69.61
2023-05-24T02:43:46.739Z,70.50
2023-05-24T02:44:46.671Z,70.92
2023-05-24T02:45:46.646Z,70.93
2023-05-24T02:46:46.665Z,70.82
2023-05-24T02:47:46.665Z,69.58
2023-05-24T02:48:46.629Z,70.03
2023-05-24T02:49:46.602Z,69.08
2023-05-24T02:50:46.596Z,69.66
2023-05-24T02:51:46.591Z,70.48
2023-05-24T02:52:46.583Z,70.20
2023-05-24T02:53:46.571Z,70.91
2023-05-24T02:54:46.550Z,71.22
2023-05-24T02:55:46.560Z,70.78
2023-05-24T02:56:46.530Z,69.86
2023-05-24T02:57:46.532Z,68.41
2023-05-24T02:58:46.550Z,69.35
2023-05-24T02:59:46.492Z,69.70
2023-05-24T03:00:46.486Z,70.07
2023-05-24T03:01:46.523Z,69.62
2023-05-24T03:02:46.676Z,69.67
2023-05-24T03:03:46.548Z,70.17
2023-05-24T03:04:46.465Z,71.16
2023-05-24T03:05:46.451Z,70.96
2023-05-24T03:06:46.422Z,70.14
2023-05-24T03:07:46.496Z,71.06
2023-05-24T03:08:46.404Z,69.90
2023-05-24T03:09:46.400Z,71.05
2023-05-24T03:10:46.394Z,70.41
2023-05-24T03:11:46.413Z,70.61
2023-05-24T03:12:46.401Z,68.92
2023-05-24T03:13:46.361Z,70.53
2023-05-24T03:14:46.359Z,68.77
2023-05-24T03:15:46.336Z,71.17
2023-05-24T03:16:46.353Z,72.06
2023-05-24T03:17:46.358Z,71.92
2023-05-24T03:18:46.309Z,70.62
2023-05-24T03:19:46.309Z,70.83
2023-05-24T03:20:46.296Z,69.93
2023-05-24T03:21:46.295Z,70.42
2023-05-24T03:22:46.303Z,72.02
2023-05-24T03:23:46.263Z,72.48
2023-05-24T03:24:46.254Z,71.76
2023-05-24T03:25:46.305Z,72.12
2023-05-24T03:26:46.244Z,71.41
2023-05-24T03:27:46.226Z,72.19
2023-05-24T03:28:46.233Z,71.30
2023-05-24T03:29:46.197Z,71.42
2023-05-24T03:30:46.208Z,69.87
2023-05-24T03:31:46.284Z,68.96
2023-05-24T03:32:46.268Z,69.31
2023-05-24T03:33:46.167Z,69.76
2023-05-24T03:34:46.189Z,70.45
2023-05-24T03:35:46.178Z,69.04
2023-05-24T03:36:46.150Z,69.48
2023-05-24T03:37:46.131Z,69.63
2023-05-24T03:38:46.160Z,69.80
2023-05-24T03:39:46.140Z,68.40
2023-05-24T03:40:46.120Z,68.22
2023-05-24T03:41:46.098Z,68.54
2023-05-24T03:42:46.085Z,68.06
2023-05-24T03:43:46.126Z,69.02
2023-05-24T03:44:46.093Z,71.30
2023-05-24T03:45:46.079Z,69.62
2023-05-24T03:46:46.052Z,69.99
2023-05-24T03:47:46.055Z,69.35
2023-05-24T03:48:46.032Z,70.97
2023-05-24T03:49:46.054Z,70.00
2023-05-24T03:50:46.009Z,72.20
2023-05-24T03:51:45.992Z,71.10
2023-05-24T03:52:46.028Z,68.77
2023-05-24T03:53:46.015Z,68.94
2023-05-24T03:54:48.430Z,67.98
2023-05-24T03:55:45.963Z,71.17
2023-05-24T03:56:45.962Z,70.54
2023-05-24T03:57:45.940Z,70.34
2023-05-24T03:58:45.963Z,70.39
2023-05-24T03:59:45.932Z,69.15
2023-05-24T04:00:45.939Z,70.57
2023-05-24T04:01:46.011Z,69.35
2023-05-24T04:02:45.997Z,70.67
2023-05-24T04:03:46.070Z,70.52
2023-05-24T04:04:45.879Z,69.39
2023-05-24T04:05:45.873Z,69.04
2023-05-24T04:06:45.865Z,69.68
2023-05-24T04:07:45.877Z,70.33
2023-05-24T04:08:46.135Z,70.16
2023-05-24T04:09:45.838Z,70.57
2023-05-24T04:10:46.450Z,70.67
2023-05-24T04:11:45.815Z,69.96
2023-05-24T04:12:45.824Z,71.31
2023-05-24T04:13:46.500Z,70.50
2023-05-24T04:14:45.788Z,69.11
2023-05-24T04:15:45.777Z,70.44
2023-05-24T04:16:45.781Z,71.38
2023-05-24T04:17:46.730Z,71.57
2023-05-24T04:18:45.897Z,70.24
2023-05-24T04:19:45.731Z,70.20
2023-05-24T04:20:45.775Z,70.67
2023-05-24T04:21:45.777Z,71.97
2023-05-24T04:22:45.814Z,70.95
2023-05-24T04:23:45.682Z,71.82
2023-05-24T04:24:45.683Z,71.20
2023-05-24T04:25:45.671Z,72.50
2023-05-24T04:26:45.678Z,72.93
2023-05-24T04:27:45.649Z,71.96
2023-05-24T04:28:45.679Z,71.31
2023-05-24T04:29:45.626Z,71.55
2023-05-24T04:30:45.625Z,70.61
2023-05-24T04:31:45.762Z,71.02
2023-05-24T04:32:45.661Z,70.73
2023-05-24T04:33:45.611Z,69.95
2023-05-24T04:34:45.969Z,70.92
2023-05-24T04:35:46.070Z,70.67
2023-05-24T04:36:45.589Z,70.21
2023-05-24T04:37:45.566Z,70.28
2023-05-24T04:38:45.540Z,70.08
2023-05-24T04:39:45.539Z,69.96
2023-05-24T04:40:45.588Z,69.31
2023-05-24T04:41:45.519Z,69.12
2023-05-24T04:42:45.502Z,68.25
2023-05-24T04:43:45.482Z,69.27
2023-05-24T04:44:45.507Z,69.04
2023-05-24T04:45:45.479Z,68.29
2023-05-24T04:46:45.498Z,67.84
2023-05-24T04:47:45.490Z,69.32
2023-05-24T04:48:45.449Z,68.82
2023-05-24T04:49:45.446Z,67.92
2023-05-24T04:50:45.425Z,68.13
2023-05-24T04:51:45.413Z,67.15
2023-05-24T04:52:45.385Z,66.58
2023-05-24T04:53:45.371Z,67.11
2023-05-24T04:54:45.387Z,67.96
2023-05-24T04:55:45.353Z,67.61
2023-05-24T04:56:45.337Z,67.46
2023-05-24T04:57:45.332Z,68.75
2023-05-24T04:58:45.464Z,68.32
2023-05-24T04:59:45.335Z,68.80
2023-05-24T05:00:45.299Z,68.62
2023-05-24T05:01:45.365Z,68.95
2023-05-24T05:02:45.405Z,67.60
2023-05-24T05:03:45.437Z,67.69
2023-05-24T05:04:45.265Z,67.12
2023-05-24T05:05:45.242Z,67.44
2023-05-24T05:06:45.226Z,66.35
2023-05-24T05:07:45.220Z,66.54
2023-05-24T05:08:45.353Z,67.40
2023-05-24T05:09:45.221Z,67.41
2023-05-24T05:10:45.190Z,67.66
2023-05-24T05:11:45.179Z,67.36
2023-05-24T05:12:45.164Z,67.53
2023-05-24T05:13:45.165Z,67.52
2023-05-24T05:14:45.140Z,68.28
2023-05-24T05:15:45.146Z,69.08
2023-05-24T05:16:45.150Z,68.89
2023-05-24T05:17:45.116Z,69.33
2023-05-24T05:18:45.111Z,68.16
2023-05-24T05:19:45.083Z,68.24
2023-05-24T05:20:45.506Z,68.77
2023-05-24T05:21:45.065Z,67.92
2023-05-24T05:22:45.048Z,67.47
2023-05-24T05:23:45.071Z,67.08
2023-05-24T05:24:45.012Z,65.82
2023-05-24T05:25:45.036Z,65.56
2023-05-24T05:26:45.007Z,66.52
2023-05-24T05:27:45.006Z,65.86
2023-05-24T05:28:44.991Z,65.57
2023-05-24T05:29:45.045Z,65.72
2023-05-24T05:30:45.051Z,65.23
2023-05-24T05:31:44.961Z,64.87
2023-05-24T05:32:45.099Z,65.73
2023-05-24T05:33:44.935Z,65.63
2023-05-24T05:34:44.953Z,66.50
2023-05-24T05:35:44.909Z,65.61
2023-05-24T05:36:44.903Z,65.93
2023-05-24T05:37:44.912Z,65.25
2023-05-24T05:38:44.881Z,64.15
2023-05-24T05:39:44.884Z,63.76
2023-05-24T05:40:44.885Z,63.04
2023-05-24T05:41:46.055Z,62.26
2023-05-24T05:42:45.873Z,63.20
2023-05-24T05:43:44.858Z,62.08
2023-05-24T05:44:44.839Z,62.11
2023-05-24T05:45:44.886Z,61.76
2023-05-24T05:46:44.833Z,62.34
2023-05-24T05:47:44.849Z,62.88
2023-05-24T05:48:46.470Z,63.03
2023-05-24T05:49:45.889Z,63.25
2023-05-24T05:50:44.785Z,64.44
2023-05-24T05:51:44.782Z,64.21
2023-05-24T05:52:44.766Z,64.31
2023-05-24T05:53:44.748Z,64.46
2023-05-24T05:54:44.736Z,64.44
2023-05-24T05:55:44.743Z,66.19
2023-05-24T05:56:44.738Z,66.12
2023-05-24T05:57:44.706Z,66.39
2023-05-24T05:58:44.688Z,65.25
2023-05-24T05:59:44.680Z,66.92
2023-05-24T06:00:44.788Z,66.77
2023-05-24T06:01:44.668Z,64.55
2023-05-24T06:02:44.710Z,64.61
2023-05-24T06:03:44.817Z,64.94
2023-05-24T06:04:44.675Z,64.99
2023-05-24T06:05:44.640Z,65.14
2023-05-24T06:06:44.626Z,64.42
2023-05-24T06:07:44.644Z,64.02
2023-05-24T06:08:44.611Z,65.56
2023-05-24T06:09:44.612Z,64.50
2023-05-24T06:10:44.783Z,64.79
2023-05-24T06:11:44.665Z,64.82
2023-05-24T06:12:44.554Z,64.27
2023-05-24T06:13:44.541Z,64.05
2023-05-24T06:14:45.564Z,63.71
2023-05-24T06:15:44.544Z,64.58
2023-05-24T06:16:44.598Z,63.86
2023-05-24T06:17:44.522Z,63.70
2023-05-24T06:18:57.130Z,64.37
2023-05-24T06:19:46.528Z,64.25
2023-05-24T06:20:44.749Z,66.33
2023-05-24T06:21:44.462Z,65.21
2023-05-24T06:22:44.460Z,63.59
2023-05-24T06:23:44.493Z,64.35
2023-05-24T06:24:44.482Z,65.85
2023-05-24T06:25:44.427Z,64.94
2023-05-24T06:26:44.424Z,66.33
2023-05-24T06:27:44.417Z,66.93
2023-05-24T06:28:44.422Z,65.17
2023-05-24T06:29:44.445Z,66.63
2023-05-24T06:30:44.809Z,66.59
2023-05-24T06:31:44.418Z,67.98
2023-05-24T06:32:44.414Z,68.15
2023-05-24T06:33:52.545Z,66.42
2023-05-24T06:34:46.346Z,66.79
2023-05-24T06:35:44.334Z,67.24
2023-05-24T06:36:44.332Z,66.56
2023-05-24T06:37:44.337Z,66.36
2023-05-24T06:38:44.316Z,68.45
2023-05-24T06:39:44.292Z,64.78
2023-05-24T06:40:44.476Z,67.75
2023-05-24T06:41:44.292Z,66.51
2023-05-24T06:42:44.288Z,64.97
2023-05-24T06:43:44.257Z,66.42
2023-05-24T06:44:44.236Z,66.25
2023-05-24T06:45:45.247Z,65.80
2023-05-24T06:46:44.264Z,66.94
2023-05-24T06:47:44.348Z,67.39
2023-05-24T06:48:44.245Z,66.64
2023-05-24T06:49:44.193Z,67.33
2023-05-24T06:50:44.401Z,65.50
2023-05-24T06:51:45.019Z,65.80
2023-05-24T06:52:44.185Z,68.14
2023-05-24T06:53:44.161Z,68.42
2023-05-24T06:54:44.142Z,68.44
2023-05-24T06:55:44.141Z,66.40
2023-05-24T06:56:44.138Z,66.50
2023-05-24T06:57:44.119Z,68.70
2023-05-24T06:58:44.104Z,67.82
2023-05-24T06:59:44.101Z,68.66
2023-05-24T07:00:44.453Z,67.14
2023-05-24T07:01:44.199Z,67.88
2023-05-24T07:02:44.137Z,68.60
2023-05-24T07:03:44.055Z,69.05
2023-05-24T07:04:44.081Z,69.67
2023-05-24T07:05:44.056Z,70.69
2023-05-24T07:06:44.161Z,70.26
2023-05-24T07:07:44.034Z,69.70
2023-05-24T07:08:44.026Z,69.78
2023-05-24T07:09:43.999Z,68.34
2023-05-24T07:10:44.279Z,69.35
2023-05-24T07:11:44.049Z,69.08
2023-05-24T07:12:43.962Z,70.35
2023-05-24T07:13:43.958Z,70.22
2023-05-24T07:14:43.946Z,69.65
2023-05-24T07:15:43.958Z,69.52
2023-05-24T07:16:43.959Z,69.09
2023-05-24T07:17:44.570Z,69.54
2023-05-24T07:18:43.910Z,70.91
2023-05-24T07:19:43.915Z,69.75
2023-05-24T07:20:44.206Z,71.17
2023-05-24T07:21:43.881Z,70.18
2023-05-24T07:22:43.871Z,70.64
2023-05-24T07:23:43.863Z,71.04
2023-05-24T07:24:43.872Z,69.94
2023-05-24T07:25:43.872Z,70.68
2023-05-24T07:26:43.845Z,71.68
2023-05-24T07:27:43.812Z,68.35
2023-05-24T07:28:43.814Z,70.06
2023-05-24T07:29:45.787Z,68.78
2023-05-24T07:30:43.786Z,69.80
2023-05-24T07:31:43.855Z,70.28
2023-05-24T07:32:43.922Z,68.99
2023-05-24T07:33:43.778Z,70.53
2023-05-24T07:34:43.786Z,68.12
2023-05-24T07:35:43.765Z,68.33
2023-05-24T07:36:43.728Z,70.36
2023-05-24T07:37:43.739Z,69.62
2023-05-24T07:38:43.715Z,68.83
2023-05-24T07:39:43.713Z,68.87
2023-05-24T07:40:43.850Z,70.71
2023-05-24T07:41:43.709Z,68.31
2023-05-24T07:42:43.662Z,69.43
2023-05-24T07:44:04.697Z,70.00
2023-05-24T07:44:43.656Z,70.42
2023-05-24T07:45:43.864Z,70.22
2023-05-24T07:46:43.653Z,69.02
2023-05-24T07:47:43.795Z,69.69
2023-05-24T07:48:43.657Z,70.49
2023-05-24T07:49:43.593Z,69.83
2023-05-24T07:50:43.788Z,69.01
2023-05-24T07:51:43.570Z,71.31
2023-05-24T07:52:43.579Z,69.05
2023-05-24T07:53:43.572Z,72.00
2023-05-24T07:54:43.550Z,71.15
2023-05-24T07:55:43.710Z,70.78
2023-05-24T07:56:43.520Z,70.59
2023-05-24T07:57:43.616Z,71.25
2023-05-24T07:58:43.500Z,70.81
2023-05-24T07:59:43.493Z,69.86
2023-05-24T08:00:43.476Z,70.29
2023-05-24T08:01:43.485Z,72.27
2023-05-24T08:02:43.602Z,69.86
2023-05-24T08:03:43.643Z,69.07
2023-05-24T08:04:43.452Z,69.89
2023-05-24T08:05:43.728Z,69.81
2023-05-24T08:06:43.514Z,69.74
2023-05-24T08:07:43.436Z,68.77
2023-05-24T08:08:43.454Z,70.62
2023-05-24T08:09:43.395Z,69.93
2023-05-24T08:10:44.402Z,69.64
2023-05-24T08:11:43.400Z,71.29
2023-05-24T08:12:43.386Z,68.20
2023-05-24T08:13:43.353Z,68.00
2023-05-24T08:14:43.341Z,68.09
2023-05-24T08:15:43.593Z,68.19
2023-05-24T08:16:43.370Z,69.14
2023-05-24T08:17:43.363Z,69.86
2023-05-24T08:18:43.302Z,69.98
2023-05-24T08:19:43.302Z,69.33
2023-05-24T08:20:43.964Z,69.00
2023-05-24T08:21:43.289Z,69.50
2023-05-24T08:22:43.263Z,68.98
2023-05-24T08:23:43.261Z,70.69
2023-05-24T08:24:43.246Z,69.23
2023-05-24T08:25:43.519Z,67.57
2023-05-24T08:26:43.222Z,69.36
2023-05-24T08:27:43.222Z,70.51
2023-05-24T08:28:44.207Z,68.10
2023-05-24T08:29:43.182Z,68.14
2023-05-24T08:30:43.211Z,68.21
2023-05-24T08:31:43.195Z,70.23
2023-05-24T08:32:43.233Z,70.29
2023-05-24T08:33:43.153Z,69.17
2023-05-24T08:34:43.134Z,69.81
2023-05-24T08:35:43.435Z,69.00
2023-05-24T08:36:43.114Z,67.43
2023-05-24T08:37:43.161Z,69.12
2023-05-24T08:38:43.096Z,69.87
2023-05-24T08:39:43.115Z,69.80
2023-05-24T08:40:43.096Z,69.98
2023-05-24T08:41:44.493Z,69.37
2023-05-24T08:42:43.054Z,69.93
2023-05-24T08:43:43.065Z,69.48
2023-05-24T08:44:43.054Z,68.79
2023-05-24T08:45:43.382Z,67.45
2023-05-24T08:47:14.925Z,67.53
2023-05-24T08:47:43.119Z,66.96
2023-05-24T08:48:43.036Z,67.16
2023-05-24T08:49:43.014Z,67.73
2023-05-24T08:50:42.984Z,67.95
2023-05-24T08:51:42.988Z,66.17
2023-05-24T08:52:42.967Z,69.76
2023-05-24T08:53:42.968Z,69.62
2023-05-24T08:54:42.964Z,69.12
2023-05-24T08:55:43.230Z,69.76
2023-05-24T08:56:42.933Z,68.69
2023-05-24T08:57:42.929Z,68.60
2023-05-24T08:58:42.945Z,69.02
2023-05-24T08:59:42.903Z,69.75
2023-05-24T09:00:42.889Z,68.94
2023-05-24T09:01:42.959Z,68.82
2023-05-24T09:02:42.895Z,68.83
2023-05-24T09:03:42.895Z,68.31
2023-05-24T09:04:42.848Z,67.95
2023-05-24T09:05:43.095Z,69.27
2023-05-24T09:06:42.838Z,67.87
2023-05-24T09:07:42.850Z,67.50
2023-05-24T09:08:44.059Z,68.36
2023-05-24T09:09:43.804Z,68.36
2023-05-24T09:10:53.966Z,69.26
2023-05-24T09:11:44.786Z,68.28
2023-05-24T09:12:42.794Z,66.76
2023-05-24T09:13:42.754Z,66.36
2023-05-24T09:14:42.757Z,68.77
2023-05-24T09:15:43.125Z,67.30
2023-05-24T09:16:42.766Z,69.69
2023-05-24T09:17:42.768Z,67.26
2023-05-24T09:18:42.706Z,68.41
2023-05-24T09:19:42.700Z,68.07
2023-05-24T09:20:42.906Z,68.22
2023-05-24T09:21:42.695Z,67.32
2023-05-24T09:22:42.914Z,68.03
2023-05-24T09:23:42.655Z,66.52
2023-05-24T09:24:42.673Z,67.75
2023-05-24T09:25:42.625Z,67.14
2023-05-24T09:26:42.655Z,65.99
2023-05-24T09:27:42.608Z,65.63
2023-05-24T09:28:42.613Z,66.05
2023-05-24T09:29:42.622Z,68.05
2023-05-24T09:30:42.749Z,68.41
2023-05-24T09:31:42.622Z,67.59
2023-05-24T09:32:42.601Z,67.91
2023-05-24T09:33:42.601Z,68.31
2023-05-24T09:34:42.583Z,67.66
2023-05-24T09:35:42.604Z,68.50
2023-05-24T09:36:42.541Z,69.16
2023-05-24T09:37:42.521Z,69.45
2023-05-24T09:38:42.512Z,68.50
2023-05-24T09:39:42.487Z,67.47
2023-05-24T09:40:42.631Z,68.02
2023-05-24T09:41:42.480Z,68.56
2023-05-24T09:42:42.460Z,68.10
2023-05-24T09:43:43.454Z,68.57
2023-05-24T09:44:42.464Z,68.95
2023-05-24T09:45:42.465Z,67.41
2023-05-24T09:46:42.465Z,67.76
2023-05-24T09:47:42.449Z,68.82
2023-05-24T09:48:42.417Z,66.58
2023-05-24T09:49:42.421Z,68.91
2023-05-24T09:50:42.610Z,69.37
2023-05-24T09:51:42.401Z,66.77
2023-05-24T09:52:42.363Z,67.31
2023-05-24T09:53:42.354Z,67.97
2023-05-24T09:54:42.354Z,67.00
2023-05-24T09:55:42.345Z,67.48
2023-05-24T09:56:42.324Z,67.85
2023-05-24T09:57:42.331Z,69.00
2023-05-24T09:58:42.335Z,67.39
2023-05-24T09:59:42.309Z,68.08
2023-05-24T10:00:42.683Z,66.65
2023-05-24T10:01:42.330Z,65.33
2023-05-24T10:02:52.291Z,66.09
2023-05-24T10:03:44.302Z,65.87
2023-05-24T10:04:42.270Z,66.62
2023-05-24T10:05:42.254Z,68.60
2023-05-24T10:06:42.236Z,70.18
2023-05-24T10:07:42.226Z,67.55
2023-05-24T10:08:42.225Z,68.63
2023-05-24T10:09:42.204Z,68.92
2023-05-24T10:10:42.461Z,69.68
2023-05-24T10:11:42.201Z,68.05
2023-05-24T10:12:42.189Z,68.01
2023-05-24T10:13:42.184Z,69.51
2023-05-24T10:14:42.155Z,69.23
2023-05-24T10:15:42.147Z,67.49
2023-05-24T10:16:42.207Z,67.67
2023-05-24T10:17:42.191Z,68.94
2023-05-24T10:18:42.133Z,67.99
2023-05-24T10:19:42.109Z,68.84
2023-05-24T10:20:42.567Z,68.18
2023-05-24T10:21:42.122Z,67.24
2023-05-24T10:22:42.111Z,67.61
2023-05-24T10:23:42.081Z,66.96
2023-05-24T10:24:42.054Z,68.26
2023-05-24T10:25:42.066Z,67.72
2023-05-24T10:26:42.035Z,67.51
2023-05-24T10:27:42.038Z,68.13
2023-05-24T10:28:42.045Z,69.53
2023-05-24T10:29:42.013Z,67.00
2023-05-24T10:30:42.663Z,68.48
2023-05-24T10:31:42.057Z,67.62
2023-05-24T10:32:42.035Z,68.30
2023-05-24T10:33:41.981Z,66.63
2023-05-24T10:34:41.973Z,68.24
2023-05-24T10:35:41.949Z,69.70
2023-05-24T10:36:41.964Z,69.93
2023-05-24T10:37:41.939Z,68.96
2023-05-24T10:38:41.929Z,70.08
2023-05-24T10:39:41.925Z,70.06
2023-05-24T10:40:42.003Z,65.96
2023-05-24T10:41:41.916Z,66.22
2023-05-24T10:42:41.896Z,67.27
2023-05-24T10:43:41.952Z,66.74
2023-05-24T10:44:41.875Z,67.40
2023-05-24T10:45:42.880Z,68.25
2023-05-24T10:46:41.871Z,66.89
2023-05-24T10:47:41.839Z,66.65
2023-05-24T10:48:41.821Z,63.99
2023-05-24T10:49:41.819Z,65.78
2023-05-24T10:50:42.036Z,67.09
2023-05-24T10:51:41.800Z,66.98
2023-05-24T10:52:41.786Z,67.07
2023-05-24T10:53:41.774Z,66.67
2023-05-24T10:54:52.492Z,66.95
2023-05-24T10:55:43.797Z,65.99
2023-05-24T10:56:41.750Z,67.15
2023-05-24T10:57:41.740Z,67.28
2023-05-24T10:58:41.741Z,67.16
2023-05-24T10:59:41.757Z,65.47
2023-05-24T11:00:41.706Z,64.57
2023-05-24T11:01:41.711Z,62.96
2023-05-24T11:02:41.753Z,63.52
2023-05-24T11:03:41.714Z,64.20
2023-05-24T11:04:41.715Z,65.02
2023-05-24T11:05:43.183Z,64.59
2023-05-24T11:06:41.651Z,64.89
2023-05-24T11:07:41.636Z,64.24
2023-05-24T11:08:41.668Z,63.71
2023-05-24T11:09:41.639Z,65.58
2023-05-24T11:10:42.764Z,65.19
2023-05-24T11:11:41.616Z,64.61
2023-05-24T11:12:41.608Z,64.13
2023-05-24T11:13:41.750Z,62.64
2023-05-24T11:14:41.573Z,61.67
2023-05-24T11:15:41.575Z,62.53
2023-05-24T11:16:41.593Z,63.80
2023-05-24T11:17:43.501Z,63.66
2023-05-24T11:18:42.706Z,64.03
2023-05-24T11:19:41.542Z,63.85
2023-05-24T11:20:41.978Z,63.22
2023-05-24T11:21:41.538Z,63.09
2023-05-24T11:22:41.512Z,62.79
2023-05-24T11:23:42.498Z,64.76
2023-05-24T11:24:41.482Z,65.09
2023-05-24T11:25:41.541Z,64.85
2023-05-24T11:26:41.473Z,65.12
2023-05-24T11:27:41.549Z,67.59
2023-05-24T11:28:41.466Z,66.45
2023-05-24T11:29:41.437Z,66.10
2023-05-24T11:30:41.614Z,65.81
2023-05-24T11:31:43.991Z,63.99
2023-05-24T11:32:42.495Z,64.12
2023-05-24T11:33:41.385Z,65.90
2023-05-24T11:34:41.372Z,64.96
2023-05-24T11:35:41.367Z,66.32
2023-05-24T11:36:41.377Z,66.72
2023-05-24T11:37:46.461Z,67.94
2023-05-24T11:38:43.325Z,67.85
2023-05-24T11:39:41.394Z,68.42
2023-05-24T11:40:41.474Z,68.81
2023-05-24T11:41:41.316Z,67.64
2023-05-24T11:42:41.298Z,68.36
2023-05-24T11:43:41.288Z,66.42
2023-05-24T11:44:41.278Z,66.44
2023-05-24T11:45:41.354Z,63.13
2023-05-24T11:46:41.291Z,63.06
2023-05-24T11:47:41.468Z,64.71
2023-05-24T11:48:42.262Z,65.44
2023-05-24T11:49:42.242Z,65.95
2023-05-24T11:50:49.128Z,67.17
2023-05-24T11:51:43.297Z,67.54
2023-05-24T11:52:41.216Z,66.83
2023-05-24T11:53:41.180Z,67.04
2023-05-24T11:54:41.174Z,66.16
2023-05-24T11:55:41.353Z,66.53
2023-05-24T11:56:41.151Z,66.98
2023-05-24T11:57:41.146Z,67.67
2023-05-24T11:58:41.130Z,67.65
2023-05-24T11:59:41.144Z,67.31
2023-05-24T12:00:41.314Z,67.21
2023-05-24T12:01:41.109Z,68.50
2023-05-24T12:02:41.164Z,66.97
2023-05-24T12:03:41.224Z,67.23
2023-05-24T12:04:41.123Z,68.17
2023-05-24T12:05:42.062Z,68.06
2023-05-24T12:06:41.057Z,73.26
2023-05-24T12:07:41.041Z,67.56
2023-05-24T12:08:41.047Z,65.86
2023-05-24T12:09:41.077Z,66.40
2023-05-24T12:10:41.198Z,66.93
2023-05-24T12:11:41.005Z,66.00
2023-05-24T12:12:45.536Z,67.11
2023-05-24T12:13:43.050Z,66.52
2023-05-24T12:14:41.061Z,67.07
2023-05-24T12:15:41.022Z,66.75
2023-05-24T12:16:40.978Z,66.73
2023-05-24T12:17:40.996Z,68.45
2023-05-24T12:18:48.431Z,68.05
2023-05-24T12:19:42.951Z,67.16
2023-05-24T12:20:41.152Z,66.26
2023-05-24T12:21:40.948Z,66.39
2023-05-24T12:22:40.893Z,65.72
2023-05-24T12:23:41.513Z,66.26
2023-05-24T12:24:41.281Z,66.90
2023-05-24T12:25:40.860Z,66.84
2023-05-24T12:26:40.861Z,67.59
2023-05-24T12:27:41.199Z,66.68
2023-05-24T12:28:40.939Z,66.15
2023-05-24T12:29:41.746Z,65.42
2023-05-24T12:30:40.943Z,66.12
2023-05-24T12:31:40.929Z,65.66
2023-05-24T12:32:40.839Z,65.96
2023-05-24T12:33:40.854Z,67.43
2023-05-24T12:34:40.792Z,66.40
2023-05-24T12:35:40.820Z,66.11
2023-05-24T12:36:40.763Z,64.70
2023-05-24T12:37:41.062Z,65.44
2023-05-24T12:38:40.758Z,66.01
2023-05-24T12:39:40.741Z,66.81
2023-05-24T12:40:40.803Z,67.22
2023-05-24T12:41:40.721Z,66.43
2023-05-24T12:42:40.696Z,67.07
2023-05-24T12:43:40.735Z,66.75
2023-05-24T12:44:40.734Z,66.62
2023-05-24T12:45:40.670Z,65.82
2023-05-24T12:46:40.661Z,65.42
2023-05-24T12:47:40.676Z,64.51
2023-05-24T12:48:40.650Z,64.03
2023-05-24T12:49:41.009Z,64.09
2023-05-24T12:50:40.766Z,65.93
2023-05-24T12:51:40.640Z,68.02
2023-05-24T12:52:40.614Z,66.81